Time;durP1;ratioP1;P1;durP2;ratioP2;P2;SDS_P1;SDS_P2;PMS_P1;PMS_P2;Temp;Humidity;BMP_temperature;BMP_pressure;BME280_temperature;BME280_humidity;BME280_pressure;Samples;Min_cycle;Max_cycle;Signal;HPM_P1;HPM_P2
2021/05/03 00:02:11;;;;;;;7.23;3.70;;;;;;;7.09;79.85;100794.52;638544;224;24811;-79
2021/05/03 00:04:39;;;;;;;5.87;4.30;;;;;;;6.99;81.25;100799.15;640439;220;24841;-79
2021/05/03 00:07:07;;;;;;;5.17;3.70;;;;;;;6.94;81.54;100807.70;639991;225;24794;-79
2021/05/03 00:09:34;;;;;;;4.23;3.40;;;;;;;7.05;80.93;100807.78;626689;228;28063;-78
2021/05/03 00:12:02;;;;;;;3.83;3.13;;;;;;;7.26;79.82;100805.43;626183;228;24847;-78
2021/05/03 00:14:30;;;;;;;8.23;3.60;;;;;;;7.24;79.82;100801.66;627888;224;25869;-79
2021/05/03 00:16:58;;;;;;;3.70;2.97;;;;;;;7.33;77.77;100791.95;627111;228;24857;-79
2021/05/03 00:19:26;;;;;;;5.03;3.60;;;;;;;7.56;77.41;100782.98;630009;228;24842;-78
2021/05/03 00:21:54;;;;;;;4.47;3.40;;;;;;;7.30;78.26;100784.86;637390;224;24819;-78
2021/05/03 00:24:22;;;;;;;3.40;3.10;;;;;;;7.34;79.13;100784.55;627241;225;24812;-79
2021/05/03 00:26:50;;;;;;;3.07;2.77;;;;;;;7.37;79.82;100790.80;640956;222;25203;-78
2021/05/03 00:29:18;;;;;;;3.10;2.80;;;;;;;7.47;80.24;100801.32;639599;224;24849;-79
2021/05/03 00:31:45;;;;;;;3.73;3.03;;;;;;;7.30;80.88;100801.68;640732;224;25125;-78
2021/05/03 00:34:15;;;;;;;3.80;3.40;;;;;;;7.46;78.65;100800.97;619956;226;32749;-77
2021/05/03 00:36:43;;;;;;;4.53;3.40;;;;;;;6.71;81.36;100804.12;624144;229;23893;-78
2021/05/03 00:39:10;;;;;;;4.58;3.40;;;;;;;6.83;81.12;100804.09;633270;224;43832;-79
2021/05/03 00:41:38;;;;;;;4.10;3.70;;;;;;;6.21;82.78;100806.63;639410;224;23751;-78
2021/05/03 00:44:07;;;;;;;3.33;3.03;;;;;;;6.42;82.35;100813.86;630799;224;24883;-78
2021/05/03 00:46:34;;;;;;;3.37;3.07;;;;;;;6.41;81.99;100805.75;621833;229;24814;-78
2021/05/03 00:49:02;;;;;;;4.03;3.67;;;;;;;6.34;81.99;100810.52;622470;227;24912;-78
2021/05/03 00:51:31;;;;;;;3.37;3.07;;;;;;;6.32;80.73;100799.44;639911;224;25293;-79
2021/05/03 00:53:59;;;;;;;3.13;2.80;;;;;;;6.38;79.22;100799.51;623625;226;25920;-77
2021/05/03 00:56:29;;;;;;;3.57;3.00;;;;;;;6.50;77.90;100795.63;640351;224;24846;-79
2021/05/03 00:58:57;;;;;;;2.97;2.50;;;;;;;6.74;76.48;100781.46;642499;224;24786;-78
2021/05/03 01:01:25;;;;;;;3.50;2.90;;;;;;;6.62;76.03;100778.92;637266;225;24818;-80
2021/05/03 01:03:54;;;;;;;3.50;2.70;;;;;;;6.63;76.03;100783.16;622974;228;24912;-78
2021/05/03 01:06:22;;;;;;;5.10;2.73;;;;;;;6.86;75.71;100786.25;623881;229;24937;-79
2021/05/03 01:08:49;;;;;;;3.87;2.83;;;;;;;6.95;76.33;100784.33;639686;224;24890;-78
2021/05/03 01:11:17;;;;;;;3.73;3.10;;;;;;;6.88;77.68;100793.89;626400;229;24833;-79
2021/05/03 01:13:45;;;;;;;7.40;3.53;;;;;;;6.86;79.54;100801.77;625823;225;24883;-79
2021/05/03 01:16:13;;;;;;;6.33;2.87;;;;;;;6.69;80.49;100812.45;625969;229;24800;-78
2021/05/03 01:18:41;;;;;;;4.00;3.03;;;;;;;7.03;79.66;100804.45;625569;226;24826;-78
2021/05/03 01:21:09;;;;;;;3.37;3.03;;;;;;;6.89;79.96;100809.77;639581;222;24814;-78
2021/05/03 01:23:37;;;;;;;3.10;2.80;;;;;;;6.72;80.94;100814.34;640492;221;24849;-79
2021/05/03 01:26:05;;;;;;;4.10;3.30;;;;;;;6.72;81.23;100817.40;640386;223;24825;-77
2021/05/03 01:28:32;;;;;;;2.93;2.73;;;;;;;6.71;80.71;100814.45;642584;223;25141;-77
2021/05/03 01:31:00;;;;;;;4.50;3.53;;;;;;;6.82;80.11;100816.67;639408;223;24856;-78
2021/05/03 01:33:28;;;;;;;3.80;3.10;;;;;;;7.46;77.62;100804.84;635259;220;33090;-78
2021/05/03 01:35:56;;;;;;;7.80;3.10;;;;;;;6.97;78.90;100801.02;641412;224;24807;-79
2021/05/03 01:38:24;;;;;;;3.73;3.00;;;;;;;7.04;78.50;100796.63;637912;223;24898;-77
2021/05/03 01:40:52;;;;;;;4.77;3.30;;;;;;;7.04;78.19;100799.20;634089;225;25130;-79
2021/05/03 01:43:21;;;;;;;3.73;3.23;;;;;;;7.08;78.45;100799.80;632939;224;24855;-78
2021/05/03 01:45:48;;;;;;;7.17;3.40;;;;;;;7.11;78.19;100800.88;637050;224;24865;-79
2021/05/03 01:48:16;;;;;;;3.03;2.80;;;;;;;6.98;78.76;100796.20;635048;225;24871;-79
2021/05/03 01:50:44;;;;;;;3.93;2.90;;;;;;;6.52;79.17;100804.09;637450;225;24875;-76
2021/05/03 01:53:11;;;;;;;3.27;2.97;;;;;;;6.27;80.00;100811.02;634712;225;28041;-79
2021/05/03 01:55:39;;;;;;;3.33;3.03;;;;;;;6.40;79.95;100811.84;630676;225;24917;-78
2021/05/03 01:58:07;;;;;;;4.00;3.30;;;;;;;6.65;79.40;100814.42;628097;225;32869;-77
2021/05/03 02:00:35;;;;;;;4.30;3.40;;;;;;;6.74;79.41;100809.07;628511;225;32870;-78
2021/05/03 02:03:03;;;;;;;4.13;3.40;;;;;;;5.89;82.63;100820.33;636586;225;24910;-78
2021/05/03 02:05:31;;;;;;;3.20;3.00;;;;;;;5.89;83.29;100825.95;632491;224;24867;-78
2021/05/03 02:07:59;;;;;;;4.13;3.40;;;;;;;6.39;80.90;100813.61;620365;229;32977;-78
2021/05/03 02:10:27;;;;;;;4.07;3.03;;;;;;;5.75;82.86;100818.28;629437;228;24849;-79
2021/05/03 02:12:55;;;;;;;3.43;3.13;;;;;;;5.68;82.75;100820.91;641119;224;24822;-79
2021/05/03 02:15:25;;;;;;;4.27;3.43;;;;;;;5.70;84.04;100832.78;625412;230;24878;-78
2021/05/03 02:17:53;;;;;;;2.97;2.70;;;;;;;5.57;82.48;100819.83;637220;225;28033;-79
2021/05/03 02:20:21;;;;;;;4.63;3.37;;;;;;;5.58;84.31;100828.40;636412;225;24838;-78
2021/05/03 02:22:49;;;;;;;6.43;3.13;;;;;;;5.68;84.17;100825.60;625395;229;24829;-78
2021/05/03 02:25:16;;;;;;;3.63;3.33;;;;;;;5.76;84.36;100825.09;626135;225;27982;-79
2021/05/03 02:27:44;;;;;;;3.90;3.50;;;;;;;5.73;84.50;100822.72;637509;224;24872;-78
2021/05/03 02:30:13;;;;;;;4.17;3.77;;;;;;;5.68;83.58;100821.73;640094;224;24816;-77
2021/05/03 02:32:41;;;;;;;4.30;2.93;;;;;;;5.64;83.34;100817.23;642151;222;24827;-78
2021/05/03 02:35:10;;;;;;;3.90;3.30;;;;;;;5.66;83.06;100817.14;626448;225;24807;-78
2021/05/03 02:37:38;;;;;;;3.87;3.47;;;;;;;5.81;82.93;100817.90;634876;224;24846;-78
2021/05/03 02:40:07;;;;;;;3.87;3.23;;;;;;;5.82;83.17;100817.80;635276;225;24838;-79
2021/05/03 02:42:35;;;;;;;7.13;4.23;;;;;;;5.94;83.15;100822.20;626274;229;25003;-78
2021/05/03 02:45:03;;;;;;;4.00;3.60;;;;;;;6.36;82.10;100817.70;620019;226;33234;-78
2021/05/03 02:47:31;;;;;;;4.95;4.00;;;;;;;6.32;81.73;100813.64;620491;229;32967;-77
2021/05/03 02:49:59;;;;;;;4.80;4.17;;;;;;;5.90;84.06;100827.63;640066;223;23726;-79
2021/05/03 02:52:26;;;;;;;4.93;4.40;;;;;;;5.89;83.71;100829.36;638851;224;24813;-79
2021/05/03 02:54:54;;;;;;;6.30;4.77;;;;;;;5.78;84.63;100829.25;638479;224;24956;-79
2021/05/03 02:57:23;;;;;;;4.97;4.20;;;;;;;5.74;84.72;100838.09;625866;229;24842;-78
2021/05/03 02:59:51;;;;;;;6.00;4.00;;;;;;;5.72;83.76;100838.66;625137;229;24887;-78
2021/05/03 03:02:19;;;;;;;5.20;3.67;;;;;;;5.24;84.20;100836.16;639391;223;24801;-78
2021/05/03 03:04:47;;;;;;;4.43;3.60;;;;;;;5.09;86.35;100862.42;641382;220;24902;-79
2021/05/03 03:07:15;;;;;;;5.40;4.37;;;;;;;5.64;84.63;100857.70;632428;224;32606;-78
2021/05/03 03:09:43;;;;;;;5.20;4.70;;;;;;;5.74;83.67;100851.00;617685;229;32989;-78
2021/05/03 03:12:11;;;;;;;6.70;4.53;;;;;;;5.23;85.33;100861.12;638246;225;23700;-79
2021/05/03 03:14:39;;;;;;;7.27;4.90;;;;;;;5.13;86.69;100863.89;638110;225;24794;-79
2021/05/03 03:17:07;;;;;;;8.93;5.53;;;;;;;5.20;86.28;100868.19;625861;229;24810;-79
2021/05/03 03:19:37;;;;;;;7.70;6.30;;;;;;;5.24;86.49;100859.37;639027;224;25226;-78
2021/05/03 03:22:06;;;;;;;7.00;6.17;;;;;;;5.21;86.56;100860.39;626519;229;24970;-78
2021/05/03 03:24:34;;;;;;;8.35;6.17;;;;;;;5.64;85.46;100861.11;620104;226;32698;-78
2021/05/03 03:27:05;;;;;;;6.37;5.77;;;;;;;5.43;86.33;100859.86;624092;230;23762;-78
2021/05/03 03:29:33;;;;;;;7.57;5.30;;;;;;;5.39;85.89;100861.45;622943;228;24875;-79
2021/05/03 03:32:01;;;;;;;11.90;5.97;;;;;;;5.39;85.95;100866.61;638294;225;25064;-79
2021/05/03 03:34:29;;;;;;;8.30;6.13;;;;;;;5.51;85.54;100869.72;627417;225;24859;-79
2021/05/03 03:36:57;;;;;;;7.93;5.90;;;;;;;5.47;86.01;100866.94;624607;229;24829;-78
2021/05/03 03:39:24;;;;;;;9.80;6.43;;;;;;;5.47;85.16;100869.05;621301;229;24896;-81
2021/05/03 03:41:52;;;;;;;7.50;6.00;;;;;;;5.43;85.12;100868.06;640525;224;26358;-80
2021/05/03 03:44:21;;;;;;;6.80;5.77;;;;;;;5.39;85.83;100866.61;626984;225;24812;-78
2021/05/03 03:46:50;;;;;;;7.53;6.40;;;;;;;5.35;85.83;100866.81;639548;223;24950;-78
2021/05/03 03:49:17;;;;;;;9.80;6.17;;;;;;;5.28;85.82;100864.69;639980;224;24864;-78
2021/05/03 03:51:44;;;;;;;8.23;7.23;;;;;;;5.27;86.00;100877.22;637604;225;25143;-78
2021/05/03 03:54:12;;;;;;;8.73;6.90;;;;;;;5.25;86.64;100876.03;640673;221;24840;-80
2021/05/03 03:56:40;;;;;;;9.70;7.30;;;;;;;5.19;86.33;100878.97;625703;229;24804;-79
2021/05/03 03:59:10;;;;;;;11.57;6.40;;;;;;;5.21;86.11;100874.57;637796;224;26979;-81
2021/05/03 04:01:37;;;;;;;8.93;7.17;;;;;;;5.37;85.81;100874.45;627230;229;24773;-80
2021/05/03 04:04:06;;;;;;;8.90;6.90;;;;;;;5.42;85.50;100884.00;626213;226;24828;-79
2021/05/03 04:06:42;;;;;;;9.97;7.10;;;;;;;5.39;85.85;100871.77;635043;225;24822;-80
2021/05/03 04:09:09;;;;;;;9.70;7.23;;;;;;;5.53;85.45;100878.18;633609;223;24861;-79
2021/05/03 04:11:51;;;;;;;9.93;7.80;;;;;;;5.43;86.08;100874.05;634056;225;25867;-79
2021/05/03 04:14:27;;;;;;;10.60;7.47;;;;;;;5.51;86.03;100880.03;641237;223;24807;-78
2021/05/03 04:22:17;;;;;;;10.53;6.80;;;;;;;5.43;85.46;100883.08;638205;225;24804;-79
2021/05/03 04:24:40;;;;;;;9.07;7.50;;;;;;;5.42;86.13;100883.17;638157;224;24817;-72
2021/05/03 04:27:03;;;;;;;10.10;7.17;;;;;;;5.36;86.34;100891.67;626266;229;24821;-72
2021/05/03 04:29:31;;;;;;;11.13;7.80;;;;;;;5.26;86.46;100893.16;624688;229;24899;-72
2021/05/03 04:31:59;;;;;;;10.70;8.00;;;;;;;5.24;86.00;100892.42;625856;228;24875;-72
2021/05/03 04:34:27;;;;;;;9.17;7.43;;;;;;;5.30;86.33;100895.08;635880;222;24787;-74
2021/05/03 04:36:54;;;;;;;10.17;6.80;;;;;;;5.07;86.53;100900.37;634789;225;24930;-74
2021/05/03 04:39:22;;;;;;;12.20;8.20;;;;;;;4.95;87.46;100910.12;625240;229;27992;-74
2021/05/03 04:41:50;;;;;;;11.00;8.23;;;;;;;4.75;87.93;100915.16;626801;229;24833;-74
2021/05/03 04:44:18;;;;;;;10.53;8.37;;;;;;;4.81;88.41;100916.09;637679;221;24782;-74
2021/05/03 04:46:46;;;;;;;12.03;8.27;;;;;;;4.83;88.48;100919.87;624490;229;24918;-74
2021/05/03 04:49:14;;;;;;;11.40;8.37;;;;;;;4.75;89.18;100922.88;624888;229;24831;-74
2021/05/03 04:51:42;;;;;;;15.03;8.83;;;;;;;4.90;88.12;100917.28;626745;228;24910;-74
2021/05/03 04:54:10;;;;;;;11.30;8.23;;;;;;;5.11;87.20;100915.18;632288;224;24798;-75
2021/05/03 04:56:37;;;;;;;14.20;9.00;;;;;;;5.27;86.78;100918.48;641628;222;24834;-74
2021/05/03 04:59:05;;;;;;;9.67;8.23;;;;;;;5.31;85.90;100908.33;640420;223;26114;-74
2021/05/03 05:01:33;;;;;;;12.73;9.50;;;;;;;5.43;85.67;100904.17;634950;224;32977;-74
2021/05/03 05:04:01;;;;;;;11.45;9.60;;;;;;;5.53;84.65;100906.56;633913;220;32729;-73
2021/05/03 05:06:29;;;;;;;11.17;8.90;;;;;;;5.30;85.79;100916.53;641415;224;23692;-74
2021/05/03 05:08:57;;;;;;;10.53;8.63;;;;;;;5.40;85.70;100923.25;640981;224;28056;-74
2021/05/03 05:11:25;;;;;;;11.83;8.53;;;;;;;5.38;85.90;100915.25;638841;224;24841;-74
2021/05/03 05:13:53;;;;;;;10.27;7.67;;;;;;;5.44;85.35;100921.30;640284;220;24810;-71
2021/05/03 05:16:21;;;;;;;11.33;8.60;;;;;;;5.22;86.47;100920.06;640458;224;24796;-71
2021/05/03 05:18:49;;;;;;;14.13;8.60;;;;;;;5.46;85.72;100920.75;640118;224;24912;-71
2021/05/03 05:21:17;;;;;;;11.37;8.77;;;;;;;5.38;85.92;100922.52;639739;224;25094;-72
2021/05/03 05:23:45;;;;;;;10.40;8.70;;;;;;;5.92;84.74;100923.91;634509;220;33053;-72
2021/05/03 05:26:13;;;;;;;11.30;8.67;;;;;;;5.69;84.40;100919.33;640004;224;24802;-72
2021/05/03 05:28:40;;;;;;;12.33;8.53;;;;;;;5.79;84.95;100919.95;624495;229;24829;-72
2021/05/03 05:31:08;;;;;;;11.87;8.60;;;;;;;6.18;84.11;100926.08;628321;228;24945;-71
2021/05/03 05:33:36;;;;;;;10.07;7.97;;;;;;;6.53;83.25;100927.20;625132;226;28070;-71
2021/05/03 05:36:05;;;;;;;10.83;8.20;;;;;;;6.81;81.29;100915.84;624612;229;24881;-72
2021/05/03 05:38:33;;;;;;;10.80;9.08;;;;;;;7.45;80.14;100910.56;621533;229;32923;-72
2021/05/03 05:41:01;;;;;;;11.67;9.30;;;;;;;7.55;79.37;100905.11;639203;223;26874;-72
2021/05/03 05:43:29;;;;;;;9.70;8.20;;;;;;;7.59;78.94;100897.47;639104;220;24798;-72
2021/05/03 05:45:57;;;;;;;11.30;8.70;;;;;;;7.89;78.67;100898.36;639514;224;24861;-71
2021/05/03 05:48:24;;;;;;;11.30;8.70;;;;;;;8.43;77.73;100897.02;640298;224;24847;-72
2021/05/03 05:50:52;;;;;;;13.97;7.50;;;;;;;7.91;77.42;100893.06;638538;224;24939;-72
2021/05/03 05:53:20;;;;;;;9.50;7.57;;;;;;;7.49;78.10;100901.67;639657;221;24862;-71
2021/05/03 05:55:48;;;;;;;10.33;7.80;;;;;;;7.05;80.11;100915.94;624870;229;24840;-74
2021/05/03 05:58:16;;;;;;;10.00;7.40;;;;;;;6.94;80.08;100920.19;622988;229;24941;-71
2021/05/03 06:00:44;;;;;;;9.67;7.90;;;;;;;6.46;82.36;100940.61;638877;224;24917;-72
2021/05/03 06:03:12;;;;;;;12.00;8.03;;;;;;;6.19;83.80;100955.70;640902;224;24844;-74
2021/05/03 06:05:39;;;;;;;11.50;7.90;;;;;;;6.05;83.55;100960.06;632795;225;24891;-74
2021/05/03 06:08:07;;;;;;;11.57;7.77;;;;;;;6.05;84.20;100962.65;634780;225;24883;-74
2021/05/03 06:10:35;;;;;;;9.63;7.67;;;;;;;5.87;83.89;100957.70;634223;223;25052;-74
2021/05/03 06:13:03;;;;;;;9.90;8.30;;;;;;;5.86;83.96;100952.64;632685;224;32618;-74
2021/05/03 06:15:31;;;;;;;10.43;8.73;;;;;;;5.85;84.95;100954.39;619907;226;33184;-73
2021/05/03 06:17:59;;;;;;;9.20;8.30;;;;;;;6.78;83.05;100961.30;632802;223;43495;-74
2021/05/03 06:20:27;;;;;;;12.80;9.13;;;;;;;6.96;81.04;100954.05;639180;224;23754;-74
2021/05/03 06:23:00;;;;;;;10.27;7.60;;;;;;;7.45;81.00;100947.62;626886;229;24827;-74
2021/05/03 06:25:28;;;;;;;11.23;7.87;;;;;;;7.86;78.96;100927.52;637549;221;25924;-74
2021/05/03 06:27:56;;;;;;;10.53;7.23;;;;;;;7.84;76.81;100915.14;639614;224;24821;-74
2021/05/03 06:30:25;;;;;;;7.13;6.30;;;;;;;8.25;75.22;100914.27;637700;224;24824;-72
2021/05/03 06:32:52;;;;;;;8.97;7.80;;;;;;;8.50;73.31;100906.83;626005;229;24846;-71
2021/05/03 06:35:20;;;;;;;8.33;6.27;;;;;;;7.96;74.86;100909.91;626045;226;24806;-72
2021/05/03 06:37:48;;;;;;;11.50;7.07;;;;;;;8.19;75.13;100910.02;628143;226;24845;-72
2021/05/03 06:40:16;;;;;;;14.10;7.73;;;;;;;7.87;75.69;100915.75;628007;227;24856;-72
2021/05/03 06:42:46;;;;;;;9.60;7.10;;;;;;;8.25;76.78;100918.15;625709;229;27980;-72
2021/05/03 06:45:12;;;;;;;9.23;6.67;;;;;;;8.73;74.29;100913.36;625719;225;24821;-72
2021/05/03 06:47:41;;;;;;;11.38;7.20;;;;;;;9.72;71.01;100909.52;628874;225;32902;-72
2021/05/03 06:50:11;;;;;;;9.50;7.60;;;;;;;8.67;73.00;100912.05;635102;225;23711;-72
2021/05/03 06:52:38;;;;;;;9.20;7.20;;;;;;;8.94;73.17;100911.72;635622;225;24848;-72
2021/05/03 06:55:07;;;;;;;10.73;7.20;;;;;;;9.12;72.33;100914.66;624730;226;24897;-72
2021/05/03 06:57:34;;;;;;;13.10;6.87;;;;;;;9.24;71.64;100912.42;636688;225;25869;-72
2021/05/03 07:00:03;;;;;;;9.07;6.57;;;;;;;9.10;70.33;100899.69;624189;229;24823;-72
2021/05/03 07:02:31;;;;;;;8.30;6.80;;;;;;;9.25;71.86;100904.16;625945;229;24830;-72
2021/05/03 07:04:58;;;;;;;10.67;6.10;;;;;;;9.46;70.26;100905.09;624993;226;24832;-72
2021/05/03 07:07:26;;;;;;;8.23;6.57;;;;;;;9.11;70.49;100906.52;624606;229;24825;-72
2021/05/03 07:09:54;;;;;;;6.23;5.53;;;;;;;9.18;69.50;100911.61;626428;229;24873;-72
2021/05/03 07:12:23;;;;;;;7.07;6.17;;;;;;;9.15;70.47;100907.96;641242;223;24801;-72
2021/05/03 07:14:50;;;;;;;9.03;6.47;;;;;;;9.41;70.98;100922.30;640800;220;24812;-72
2021/05/03 07:17:18;;;;;;;9.63;5.50;;;;;;;9.25;70.25;100918.44;633434;225;27002;-72
2021/05/03 07:19:47;;;;;;;11.03;6.57;;;;;;;10.51;68.49;100912.14;634020;224;24837;-72
2021/05/03 07:22:14;;;;;;;7.30;6.30;;;;;;;10.89;66.14;100897.23;622373;228;23937;-72
2021/05/03 07:24:42;;;;;;;7.00;6.30;;;;;;;10.30;66.25;100891.83;621421;225;32760;-72
2021/05/03 07:27:10;;;;;;;7.13;5.87;;;;;;;10.55;67.62;100893.20;625606;230;24895;-72
2021/05/03 07:29:38;;;;;;;7.83;6.17;;;;;;;11.20;66.87;100896.72;636766;224;24875;-72
2021/05/03 07:32:06;;;;;;;7.53;6.40;;;;;;;11.82;65.48;100882.62;626240;229;25980;-72
2021/05/03 07:34:34;;;;;;;7.20;6.00;;;;;;;12.24;63.53;100876.27;624944;226;23850;-72
2021/05/03 07:37:05;;;;;;;8.27;6.03;;;;;;;12.40;62.75;100873.45;626603;229;25132;-72
2021/05/03 07:39:31;;;;;;;7.00;6.20;;;;;;;12.76;61.19;100866.60;620917;229;32713;-72
2021/05/03 07:41:58;;;;;;;7.57;5.90;;;;;;;12.69;60.29;100858.20;636356;225;23761;-73
2021/05/03 07:44:27;;;;;;;9.13;6.23;;;;;;;11.84;62.69;100861.64;641203;219;24810;-72
2021/05/03 07:46:55;;;;;;;9.70;6.97;;;;;;;12.74;61.81;100859.89;625284;229;23834;-72
2021/05/03 07:49:23;;;;;;;8.50;6.27;;;;;;;12.09;61.81;100855.84;625842;229;25027;-73
2021/05/03 07:51:51;;;;;;;7.50;6.23;;;;;;;11.98;61.11;100853.88;638332;224;24876;-72
2021/05/03 07:54:18;;;;;;;10.20;7.05;;;;;;;11.25;64.17;100860.69;621171;225;32778;-72
2021/05/03 07:56:46;;;;;;;9.70;7.10;;;;;;;10.95;64.67;100862.86;640749;222;23674;-72
2021/05/03 08:01:53;;;;;;;7.50;6.70;;;;;;;12.34;61.22;100853.61;655622;214;29899;-73
2021/05/03 08:04:21;;;;;;;8.80;6.50;;;;;;;12.13;61.53;100848.58;638846;220;24838;-73
2021/05/03 08:06:51;;;;;;;7.47;5.70;;;;;;;12.34;61.50;100850.52;639935;221;24791;-73
2021/05/03 08:09:17;;;;;;;8.17;6.17;;;;;;;12.56;62.12;100849.86;635245;222;24888;-73
2021/05/03 08:11:45;;;;;;;8.23;6.47;;;;;;;13.16;59.98;100846.36;638765;221;25062;-74
2021/05/03 08:14:17;;;;;;;8.23;6.47;;;;;;;13.34;59.56;100840.22;628988;225;24944;-74
2021/05/03 08:16:40;;;;;;;6.00;5.40;;;;;;;14.16;58.88;100835.22;636826;225;24967;-71
2021/05/03 08:19:08;;;;;;;6.70;6.00;;;;;;;14.46;57.10;100822.19;647480;221;26955;-71
2021/05/03 08:21:38;;;;;;;11.10;5.87;;;;;;;14.75;56.38;100823.64;633027;225;25506;-71
2021/05/03 08:24:05;;;;;;;9.20;6.53;;;;;;;12.74;56.64;100815.52;633963;225;24843;-71
2021/05/03 08:26:33;;;;;;;6.67;5.97;;;;;;;12.56;57.23;100812.84;635928;225;24843;-73
2021/05/03 08:29:02;;;;;;;6.90;5.70;;;;;;;13.23;57.20;100816.94;639156;221;24850;-73
2021/05/03 08:31:29;;;;;;;7.67;6.43;;;;;;;13.96;55.67;100805.83;636665;222;24865;-71
2021/05/03 08:33:57;;;;;;;13.40;6.40;;;;;;;13.47;55.86;100811.12;631850;225;27012;-71
2021/05/03 08:36:25;;;;;;;8.73;6.00;;;;;;;12.86;57.70;100816.97;630647;225;28091;-73
2021/05/03 08:38:53;;;;;;;7.73;6.60;;;;;;;12.69;57.77;100821.66;648456;221;24774;-73
2021/05/03 08:41:20;;;;;;;6.40;5.37;;;;;;;13.20;56.67;100817.70;636115;223;24877;-73
2021/05/03 08:43:51;;;;;;;10.37;5.33;;;;;;;13.43;54.37;100801.12;641041;220;24887;-73
2021/05/03 08:46:26;;;;;;;6.87;5.60;;;;;;;13.84;54.79;100797.89;628839;225;24933;-74
2021/05/03 08:48:53;;;;;;;6.80;5.90;;;;;;;14.52;53.87;100778.39;629857;225;24839;-71
2021/05/03 08:51:27;;;;;;;6.10;5.50;;;;;;;14.32;54.23;100795.74;629443;225;24863;-71
2021/05/03 08:53:43;;;;;;;8.43;6.07;;;;;;;14.87;52.92;100783.59;642323;221;23791;-71
2021/05/03 08:56:09;;;;;;;6.30;5.27;;;;;;;14.99;52.75;100783.14;644060;221;23840;-71
2021/05/03 08:58:38;;;;;;;8.03;6.00;;;;;;;14.06;52.58;100777.43;643917;221;31321;-73
2021/05/03 09:01:06;;;;;;;5.73;5.20;;;;;;;13.72;52.82;100772.13;641197;221;23971;-73
2021/05/03 09:03:35;;;;;;;6.13;5.37;;;;;;;13.77;53.21;100775.09;638900;221;24863;-73
2021/05/03 09:06:04;;;;;;;6.30;5.60;;;;;;;13.74;53.60;100771.48;635042;225;25989;-73
2021/05/03 09:08:32;;;;;;;6.73;5.80;;;;;;;14.35;52.15;100770.56;637012;225;24829;-71
2021/05/03 09:10:59;;;;;;;6.73;5.63;;;;;;;14.43;52.21;100762.77;639895;221;25110;-71
2021/05/03 09:13:28;;;;;;;5.63;4.77;;;;;;;14.01;52.53;100762.20;628104;225;23909;-74
2021/05/03 09:16:14;;;;;;;8.90;5.40;;;;;;;14.65;52.36;100753.09;646574;220;24878;-74
2021/05/03 09:18:42;;;;;;;7.60;5.13;;;;;;;16.13;52.14;100756.16;640557;221;25065;-71
2021/05/03 09:21:18;;;;;;;7.62;5.85;;;;;;;15.75;51.02;100742.76;625437;225;32984;-71
2021/05/03 09:23:56;;;;;;;7.93;5.47;;;;;;;14.30;50.71;100737.52;644728;221;22741;-71
2021/05/03 09:26:34;;;;;;;6.30;5.10;;;;;;;14.72;49.54;100737.55;641574;221;25197;-73
2021/05/03 09:29:04;;;;;;;6.70;4.90;;;;;;;14.51;50.07;100731.44;648158;221;23840;-74
2021/05/03 09:31:59;;;;;;;7.87;4.77;;;;;;;14.08;51.48;100727.94;655481;217;29805;-71
2021/05/03 09:34:27;;;;;;;5.80;4.57;;;;;;;14.01;52.98;100733.92;640544;222;25337;-72
2021/05/03 09:36:58;;;;;;;7.47;5.60;;;;;;;13.96;52.48;100737.02;642775;221;25092;-71
2021/05/03 09:39:30;;;;;;;6.07;5.33;;;;;;;13.78;52.37;100744.88;638860;221;24859;-71
2021/05/03 09:41:58;;;;;;;6.87;5.00;;;;;;;13.39;53.32;100733.98;641193;221;32589;-72
2021/05/03 09:44:26;;;;;;;6.43;4.07;;;;;;;12.94;53.03;100742.64;654902;216;23663;-74
2021/05/03 09:46:58;;;;;;;7.60;4.90;;;;;;;12.81;52.74;100738.73;640349;220;24808;-73
2021/05/03 09:49:22;;;;;;;11.23;4.90;;;;;;;13.82;52.86;100725.80;642260;220;24867;-73
2021/05/03 09:51:50;;;;;;;5.10;4.50;;;;;;;14.25;50.65;100724.42;638510;222;24801;-71
2021/05/03 09:54:20;;;;;;;5.23;4.73;;;;;;;14.26;50.31;100714.28;641239;221;24832;-71
2021/05/03 09:56:48;;;;;;;9.57;4.50;;;;;;;14.81;51.05;100713.86;657353;217;24753;-72
2021/05/03 09:59:25;;;;;;;8.97;6.80;;;;;;;14.30;51.06;100708.73;655960;216;24778;-72
2021/05/03 10:02:00;;;;;;;5.87;4.30;;;;;;;14.59;52.37;100715.74;638314;221;24814;-71
2021/05/03 10:04:29;;;;;;;7.07;5.00;;;;;;;13.60;50.51;100712.73;657901;217;24828;-71
2021/05/03 10:06:56;;;;;;;5.40;4.90;;;;;;;13.12;53.48;100720.97;645966;221;24771;-74
2021/05/03 10:09:25;;;;;;;7.10;5.10;;;;;;;12.90;53.24;100729.55;650615;221;24821;-71
2021/05/03 10:11:52;;;;;;;6.63;5.60;;;;;;;13.46;53.83;100712.80;641505;221;32605;-73
2021/05/03 10:14:20;;;;;;;5.43;4.90;;;;;;;14.00;52.38;100710.88;655207;217;24760;-72
2021/05/03 10:16:48;;;;;;;4.97;4.33;;;;;;;14.27;50.26;100700.71;644004;220;24853;-71
2021/05/03 10:19:16;;;;;;;5.60;4.80;;;;;;;14.28;50.69;100700.22;640156;221;32671;-71
2021/05/03 10:21:44;;;;;;;6.00;3.90;;;;;;;14.77;50.34;100701.22;658248;216;24778;-71
2021/05/03 10:24:13;;;;;;;4.57;4.10;;;;;;;14.12;50.72;100697.05;652836;219;27935;-71
2021/05/03 10:26:41;;;;;;;6.10;3.83;;;;;;;13.70;50.15;100684.71;652027;217;24772;-71
2021/05/03 10:29:09;;;;;;;4.73;3.80;;;;;;;14.25;51.03;100690.90;660487;217;24742;-71
2021/05/03 10:31:59;;;;;;;6.70;3.63;;;;;;;15.20;50.39;100688.37;655203;216;24786;-71
2021/05/03 10:34:39;;;;;;;4.33;3.73;;;;;;;15.55;46.73;100686.38;654904;217;24786;-71
2021/05/03 10:37:18;;;;;;;3.47;3.10;;;;;;;14.92;47.77;100668.67;648887;221;24844;-72
2021/05/03 10:39:46;;;;;;;3.57;3.27;;;;;;;13.83;49.12;100680.38;651637;217;24767;-71
2021/05/03 10:42:14;;;;;;;3.53;3.23;;;;;;;13.27;49.94;100677.70;644040;219;24806;-76
2021/05/03 10:45:00;;;;;;;6.10;3.50;;;;;;;12.97;50.50;100677.58;638143;221;24850;-75
2021/05/03 10:47:29;;;;;;;4.97;3.70;;;;;;;13.42;49.58;100676.67;656693;216;23760;-73
2021/05/03 10:49:56;;;;;;;4.30;3.20;;;;;;;14.39;48.42;100669.85;653659;216;24815;-73
2021/05/03 10:52:33;;;;;;;4.57;3.50;;;;;;;14.74;48.39;100669.63;647204;221;24844;-70
2021/05/03 10:55:01;;;;;;;4.80;3.10;;;;;;;14.19;49.38;100660.11;649977;217;24777;-71
2021/05/03 10:57:32;;;;;;;3.67;3.07;;;;;;;14.07;49.18;100658.26;639916;220;24905;-73
2021/05/03 11:00:00;;;;;;;3.23;3.00;;;;;;;14.32;50.36;100655.26;645551;221;25974;-71
2021/05/03 11:02:27;;;;;;;3.07;2.87;;;;;;;14.25;49.36;100651.16;646561;221;28042;-71
2021/05/03 11:05:06;;;;;;;8.33;3.40;;;;;;;14.05;48.88;100662.83;654669;217;26276;-73
2021/05/03 11:07:34;;;;;;;6.63;3.27;;;;;;;13.93;49.09;100643.16;641213;221;25097;-70
2021/05/03 11:10:02;;;;;;;3.87;3.50;;;;;;;14.79;48.35;100644.30;655514;217;23795;-71
2021/05/03 11:12:31;;;;;;;4.30;3.23;;;;;;;16.03;48.67;100646.13;651084;216;33047;-71
2021/05/03 11:15:10;;;;;;;4.28;3.00;;;;;;;16.46;46.06;100626.89;634511;221;32708;-71
2021/05/03 11:17:38;;;;;;;4.47;3.23;;;;;;;15.85;46.50;100622.74;645393;221;23691;-70
2021/05/03 11:20:09;;;;;;;6.20;3.23;;;;;;;14.84;45.97;100611.88;652119;217;25942;-71
2021/05/03 11:22:42;;;;;;;3.07;2.77;;;;;;;15.20;45.85;100608.45;653725;216;24754;-70
2021/05/03 11:25:11;;;;;;;6.23;2.90;;;;;;;16.26;47.21;100613.39;642287;222;23810;-71
2021/05/03 11:27:43;;;;;;;5.23;3.27;;;;;;;17.18;45.28;100610.31;647825;221;24808;-71
2021/05/03 11:30:12;;;;;;;3.40;3.10;;;;;;;18.08;46.45;100604.91;637933;222;24827;-71
2021/05/03 11:32:39;;;;;;;5.03;3.10;;;;;;;17.24;44.93;100586.43;656376;217;24795;-73
2021/05/03 11:35:18;;;;;;;4.83;3.37;;;;;;;15.94;45.68;100597.31;658765;217;24752;-74
2021/05/03 11:37:46;;;;;;;5.07;3.40;;;;;;;15.10;45.57;100594.20;652258;216;26942;-73
2021/05/03 11:40:24;;;;;;;3.73;3.10;;;;;;;14.63;45.98;100586.16;645005;220;24808;-73
2021/05/03 11:43:11;;;;;;;3.03;2.73;;;;;;;15.14;46.05;100589.44;654714;217;27977;-73
2021/05/03 11:45:30;;;;;;;3.40;2.57;;;;;;;15.52;48.44;100593.65;657011;216;24775;-73